Time;durP1;ratioP1;P1;durP2;ratioP2;P2;SDS_P1;SDS_P2;PMS_P1;PMS_P2;Temp;Humidity;BMP_temperature;BMP_pressure;BME280_temperature;BME280_humidity;BME280_pressure;Samples;Min_cycle;Max_cycle;Signal;HPM_P1;HPM_P2
2021/09/17 00:01:26;;;;;;;5.22;3.38;;;13.20;86.60;;;;;;5035115;28;20025;-73
2021/09/17 00:03:52;;;;;;;5.43;3.53;;;13.20;86.30;;;;;;5017177;28;20500;-73
2021/09/17 00:06:17;;;;;;;7.28;3.53;;;13.20;86.30;;;;;;5017200;28;20021;-76
2021/09/17 00:08:43;;;;;;;6.60;3.83;;;13.20;86.20;;;;;;5034999;28;20034;-74
2021/09/17 00:11:08;;;;;;;4.95;3.35;;;13.20;86.20;;;;;;5016976;28;20496;-73
2021/09/17 00:13:35;;;;;;;6.70;3.55;;;13.10;86.50;;;;;;5017329;28;20105;-74
2021/09/17 00:16:01;;;;;;;5.22;3.38;;;13.10;86.80;;;;;;5024591;28;20020;-73
2021/09/17 00:18:26;;;;;;;5.72;3.60;;;13.10;86.80;;;;;;5031205;28;20392;-74
2021/09/17 00:20:52;;;;;;;5.50;3.90;;;13.20;86.70;;;;;;5039079;28;20025;-73
2021/09/17 00:23:17;;;;;;;11.00;3.85;;;13.10;86.80;;;;;;5017043;28;20117;-74
2021/09/17 00:25:43;;;;;;;5.00;3.83;;;13.10;86.90;;;;;;5016926;28;20494;-74
2021/09/17 00:28:09;;;;;;;4.30;3.60;;;13.10;86.80;;;;;;5016836;28;20025;-74
2021/09/17 00:30:34;;;;;;;4.35;3.78;;;13.10;86.80;;;;;;5016685;28;20021;-76
2021/09/17 00:33:00;;;;;;;5.65;3.58;;;13.10;86.80;;;;;;5016643;28;20022;-75
2021/09/17 00:35:26;;;;;;;4.32;3.65;;;13.00;86.60;;;;;;5016440;28;20021;-74
2021/09/17 00:37:52;;;;;;;5.38;4.18;;;13.00;86.90;;;;;;5016170;28;20037;-74
2021/09/17 00:40:18;;;;;;;11.20;4.10;;;13.00;87.00;;;;;;5016622;28;20021;-74
2021/09/17 00:42:44;;;;;;;4.55;3.47;;;13.00;86.90;;;;;;5034075;28;20048;-74
2021/09/17 00:45:11;;;;;;;7.22;3.80;;;13.00;87.10;;;;;;5016352;28;20026;-74
2021/09/17 00:47:38;;;;;;;7.75;4.20;;;13.00;87.40;;;;;;5015976;28;20018;-74
2021/09/17 00:50:06;;;;;;;6.32;4.05;;;13.10;87.20;;;;;;5034171;28;20560;-74
2021/09/17 00:52:32;;;;;;;6.72;3.75;;;13.00;86.90;;;;;;5015327;28;20533;-75
2021/09/17 00:54:57;;;;;;;5.82;3.97;;;13.10;87.00;;;;;;5016378;28;20042;-75
2021/09/17 00:57:23;;;;;;;7.03;4.22;;;13.10;86.90;;;;;;5016150;28;20064;-75
2021/09/17 00:59:49;;;;;;;4.97;3.70;;;13.00;86.80;;;;;;5016238;28;20065;-75
2021/09/17 01:02:15;;;;;;;4.25;3.53;;;13.00;87.00;;;;;;5016013;28;20051;-74
2021/09/17 01:04:41;;;;;;;5.50;4.22;;;13.00;86.70;;;;;;5015902;28;20025;-75
2021/09/17 01:07:07;;;;;;;5.25;4.05;;;13.00;86.60;;;;;;5016001;28;20030;-74
2021/09/17 01:09:33;;;;;;;4.65;4.07;;;13.10;86.70;;;;;;5033768;28;20044;-77
2021/09/17 01:12:03;;;;;;;5.07;3.83;;;13.00;86.80;;;;;;5033554;28;20116;-76
2021/09/17 01:14:31;;;;;;;6.03;4.20;;;13.10;86.90;;;;;;5033701;28;20044;-75
2021/09/17 01:16:57;;;;;;;4.40;4.00;;;13.00;86.50;;;;;;5015650;28;20022;-74
2021/09/17 01:19:22;;;;;;;8.95;4.57;;;13.10;87.40;;;;;;5015897;28;20413;-74
2021/09/17 01:21:57;;;;;;;11.73;4.78;;;13.10;87.00;;;;;;5033333;28;20124;-74
2021/09/17 01:24:22;;;;;;;8.60;4.00;;;13.10;86.90;;;;;;5015859;28;20030;-74
2021/09/17 01:26:49;;;;;;;6.97;4.47;;;13.10;87.00;;;;;;5015761;28;20497;-74
2021/09/17 01:29:16;;;;;;;5.15;4.20;;;13.10;87.00;;;;;;5015809;28;20125;-74
2021/09/17 01:31:41;;;;;;;11.90;4.53;;;13.10;87.20;;;;;;5015492;28;20025;-77
2021/09/17 01:34:08;;;;;;;5.72;4.40;;;13.00;87.00;;;;;;5015461;28;20112;-76
2021/09/17 01:36:34;;;;;;;10.35;4.32;;;13.10;87.10;;;;;;5015625;28;20032;-77
2021/09/17 01:38:59;;;;;;;5.65;4.57;;;13.10;87.10;;;;;;4999120;28;20041;-77
2021/09/17 01:41:27;;;;;;;6.65;4.50;;;13.10;86.90;;;;;;5033283;28;20429;-77
2021/09/17 01:43:52;;;;;;;9.13;4.72;;;13.10;86.90;;;;;;5015511;28;20516;-76
2021/09/17 01:46:20;;;;;;;6.82;4.10;;;13.10;86.90;;;;;;5015524;28;20030;-76
2021/09/17 01:48:47;;;;;;;4.43;4.03;;;13.10;86.70;;;;;;5032496;28;20044;-76
2021/09/17 01:51:16;;;;;;;6.05;4.13;;;13.10;86.60;;;;;;5015429;28;20116;-76
2021/09/17 01:53:42;;;;;;;7.55;4.40;;;13.00;86.70;;;;;;5015041;28;20390;-74
2021/09/17 01:56:07;;;;;;;6.43;4.40;;;13.00;86.90;;;;;;5015216;28;20117;-77
2021/09/17 01:58:33;;;;;;;10.13;4.57;;;12.90;87.10;;;;;;5014967;28;20136;-76
2021/09/17 02:01:00;;;;;;;4.95;4.45;;;12.90;87.10;;;;;;5015178;28;20022;-74
2021/09/17 02:03:26;;;;;;;6.68;4.07;;;12.80;87.30;;;;;;5014970;28;20099;-76
2021/09/17 02:05:51;;;;;;;6.50;4.35;;;12.80;87.60;;;;;;5015033;28;20481;-74
2021/09/17 02:08:18;;;;;;;6.38;4.30;;;12.80;87.60;;;;;;5032924;28;20025;-76
2021/09/17 02:10:44;;;;;;;7.90;4.80;;;12.80;87.70;;;;;;5014899;28;20446;-77
2021/09/17 02:13:11;;;;;;;5.95;4.75;;;12.80;87.70;;;;;;5015214;28;20052;-77
2021/09/17 02:15:38;;;;;;;5.85;3.75;;;12.80;87.70;;;;;;5015161;28;20053;-76
2021/09/17 02:18:03;;;;;;;7.70;4.85;;;12.70;88.80;;;;;;5014782;28;20158;-77
2021/09/17 02:20:29;;;;;;;4.95;4.10;;;12.70;88.10;;;;;;5014805;28;20438;-74
2021/09/17 02:22:55;;;;;;;7.70;4.28;;;12.70;87.80;;;;;;5015046;28;20116;-74
2021/09/17 02:25:20;;;;;;;9.73;4.75;;;12.70;87.90;;;;;;5014855;28;20482;-77
2021/09/17 02:27:47;;;;;;;7.05;4.18;;;12.70;88.10;;;;;;5014820;28;20052;-76
2021/09/17 02:30:13;;;;;;;4.28;3.70;;;12.70;88.20;;;;;;5014884;28;20063;-75
2021/09/17 02:32:39;;;;;;;7.55;4.78;;;12.70;88.00;;;;;;5015051;28;20036;-75
2021/09/17 02:35:07;;;;;;;9.65;4.55;;;12.70;88.00;;;;;;5014975;28;20113;-76
2021/09/17 02:37:34;;;;;;;6.53;4.13;;;12.70;87.80;;;;;;5014352;28;20037;-77
2021/09/17 02:40:00;;;;;;;5.63;4.43;;;12.70;87.70;;;;;;5014610;28;20032;-74
2021/09/17 02:42:25;;;;;;;4.88;4.38;;;12.70;87.70;;;;;;5014742;28;20026;-74
2021/09/17 02:44:52;;;;;;;6.50;4.03;;;12.80;87.70;;;;;;5014751;28;20032;-77
2021/09/17 02:47:18;;;;;;;7.80;4.38;;;12.70;87.80;;;;;;5014949;28;20604;-74
2021/09/17 02:49:43;;;;;;;6.88;4.63;;;12.70;88.00;;;;;;5014597;28;20021;-74
2021/09/17 02:52:09;;;;;;;5.03;4.53;;;12.60;88.10;;;;;;5014671;28;20029;-77
2021/09/17 02:54:35;;;;;;;9.25;5.00;;;12.60;88.10;;;;;;5014700;28;20045;-76
2021/09/17 02:57:00;;;;;;;9.65;4.95;;;12.60;88.30;;;;;;5014829;28;20075;-76
2021/09/17 02:59:26;;;;;;;6.55;5.07;;;12.60;88.30;;;;;;5032546;28;20059;-76
2021/09/17 03:01:51;;;;;;;6.60;4.43;;;12.50;89.10;;;;;;5018376;28;20048;-76
2021/09/17 03:04:17;;;;;;;6.68;4.20;;;12.50;88.40;;;;;;5018659;28;20026;-76
2021/09/17 03:06:42;;;;;;;7.50;4.43;;;12.50;88.30;;;;;;5018488;28;20025;-76
2021/09/17 03:09:08;;;;;;;7.30;4.93;;;12.60;88.20;;;;;;5018654;28;20029;-76
2021/09/17 03:11:33;;;;;;;8.70;4.53;;;12.60;88.00;;;;;;5018280;28;20032;-76
2021/09/17 03:13:59;;;;;;;9.40;4.75;;;12.50;87.90;;;;;;5018341;28;20064;-76
2021/09/17 03:16:24;;;;;;;6.15;4.47;;;12.50;88.00;;;;;;5018206;28;20029;-76
2021/09/17 03:18:50;;;;;;;6.43;4.65;;;12.40;87.90;;;;;;5017974;28;20063;-76
2021/09/17 03:21:17;;;;;;;8.95;5.10;;;12.50;88.00;;;;;;5018386;28;20025;-76
2021/09/17 03:23:43;;;;;;;7.80;4.80;;;12.40;87.90;;;;;;5035787;28;20029;-77
2021/09/17 03:26:09;;;;;;;6.80;5.10;;;12.30;88.20;;;;;;5035897;28;20484;-76
2021/09/17 03:28:34;;;;;;;8.15;4.78;;;12.40;88.30;;;;;;5018234;28;20428;-76
2021/09/17 03:31:00;;;;;;;5.60;4.55;;;12.30;88.50;;;;;;5017976;28;20385;-76
2021/09/17 03:33:25;;;;;;;8.00;4.75;;;12.30;88.60;;;;;;5018196;28;20025;-76
2021/09/17 03:35:52;;;;;;;7.60;4.65;;;12.20;88.70;;;;;;5017960;28;20025;-76
2021/09/17 03:38:19;;;;;;;5.70;4.95;;;12.10;88.90;;;;;;5017871;28;20029;-77
2021/09/17 03:40:47;;;;;;;7.22;4.53;;;12.20;89.80;;;;;;5017759;28;20071;-76
2021/09/17 03:43:15;;;;;;;9.02;5.00;;;12.10;89.00;;;;;;5035731;28;20014;-77
2021/09/17 03:45:41;;;;;;;8.32;4.38;;;12.10;89.00;;;;;;5017738;28;20526;-77
2021/09/17 03:48:09;;;;;;;6.45;4.55;;;12.10;89.00;;;;;;5017638;28;20132;-76
2021/09/17 03:50:36;;;;;;;8.65;5.30;;;12.10;89.20;;;;;;5017365;28;20083;-76
2021/09/17 03:53:02;;;;;;;9.05;5.30;;;12.10;89.20;;;;;;5017281;28;20041;-76
2021/09/17 03:55:28;;;;;;;9.30;5.65;;;12.00;89.10;;;;;;5017501;28;20036;-76
2021/09/17 03:57:54;;;;;;;5.95;5.07;;;12.00;90.00;;;;;;5017417;28;20072;-76
2021/09/17 04:00:19;;;;;;;5.53;4.38;;;12.10;89.30;;;;;;5017190;28;20473;-76
2021/09/17 04:02:45;;;;;;;6.03;4.82;;;12.10;89.10;;;;;;5020905;28;20033;-75
2021/09/17 04:05:11;;;;;;;6.07;5.10;;;12.10;88.70;;;;;;5042646;28;20036;-75
2021/09/17 04:07:38;;;;;;;5.68;4.68;;;12.00;88.60;;;;;;5033584;28;20474;-75
2021/09/17 04:10:07;;;;;;;5.57;4.63;;;12.00;88.90;;;;;;5017295;28;20037;-75
2021/09/17 04:12:32;;;;;;;5.55;4.25;;;12.00;88.90;;;;;;5016341;28;20026;-75
2021/09/17 04:14:59;;;;;;;5.13;4.63;;;12.10;89.10;;;;;;5017012;28;20029;-75
2021/09/17 04:17:24;;;;;;;5.10;4.13;;;12.10;88.90;;;;;;5017113;28;20067;-74
2021/09/17 04:19:50;;;;;;;5.47;4.47;;;12.10;88.90;;;;;;5017177;28;20069;-75
2021/09/17 04:22:16;;;;;;;7.22;4.85;;;12.00;88.60;;;;;;5034891;28;20543;-75
2021/09/17 04:24:42;;;;;;;7.68;5.00;;;12.00;88.60;;;;;;5016720;28;20037;-75
2021/09/17 04:27:07;;;;;;;12.43;5.00;;;12.00;88.60;;;;;;5016815;28;20026;-75
2021/09/17 04:29:33;;;;;;;9.15;4.82;;;12.00;88.40;;;;;;5017151;28;20470;-74
2021/09/17 04:31:59;;;;;;;8.63;5.20;;;12.00;88.60;;;;;;5035039;28;20112;-75
2021/09/17 04:34:24;;;;;;;7.53;4.75;;;12.00;88.70;;;;;;5016730;28;20036;-75
2021/09/17 04:36:50;;;;;;;9.43;5.15;;;12.00;89.00;;;;;;5016714;28;20030;-75
2021/09/17 04:39:16;;;;;;;6.60;4.50;;;12.00;88.80;;;;;;5016445;28;20174;-75
2021/09/17 04:41:41;;;;;;;7.32;4.97;;;12.10;88.90;;;;;;5000323;28;20116;-75
2021/09/17 04:44:07;;;;;;;7.40;5.07;;;12.10;88.60;;;;;;5016680;28;20474;-74
2021/09/17 04:46:32;;;;;;;6.05;4.68;;;12.10;88.20;;;;;;5017985;28;20075;-75
2021/09/17 04:48:58;;;;;;;5.65;4.70;;;12.10;88.10;;;;;;5016696;28;20080;-75
2021/09/17 04:51:24;;;;;;;11.18;4.82;;;12.10;88.00;;;;;;5016199;28;20513;-74
2021/09/17 04:53:49;;;;;;;5.57;4.28;;;12.10;88.10;;;;;;5016218;28;20056;-75
2021/09/17 04:56:15;;;;;;;5.10;4.57;;;12.10;88.00;;;;;;5016161;28;20065;-75
2021/09/17 04:58:40;;;;;;;4.35;3.88;;;12.10;88.00;;;;;;5015970;28;20033;-75
2021/09/17 05:01:06;;;;;;;8.82;5.00;;;12.10;88.20;;;;;;5016052;28;20026;-75
2021/09/17 05:03:31;;;;;;;6.88;4.60;;;12.10;88.20;;;;;;5016141;28;20512;-75
2021/09/17 05:05:57;;;;;;;9.75;4.10;;;12.10;88.10;;;;;;5033782;28;20480;-75
2021/09/17 05:08:22;;;;;;;6.05;4.50;;;12.10;89.20;;;;;;5016066;28;20500;-74
2021/09/17 05:10:48;;;;;;;7.57;4.30;;;12.00;88.10;;;;;;5015989;28;20460;-76
2021/09/17 05:13:14;;;;;;;7.72;5.07;;;12.00;88.30;;;;;;5015639;28;20124;-75
2021/09/17 05:15:39;;;;;;;4.80;4.25;;;12.00;88.10;;;;;;5015980;28;20029;-76
2021/09/17 05:18:05;;;;;;;6.28;4.60;;;12.10;88.30;;;;;;5015334;28;20029;-74
2021/09/17 05:20:31;;;;;;;4.75;4.20;;;12.00;88.40;;;;;;5015103;28;20080;-76
2021/09/17 05:22:56;;;;;;;5.00;4.03;;;12.10;88.40;;;;;;5014499;28;20179;-76
2021/09/17 05:25:23;;;;;;;4.90;4.13;;;12.10;88.30;;;;;;5014574;28;20381;-76
2021/09/17 05:27:48;;;;;;;7.95;4.47;;;12.10;88.20;;;;;;5015248;28;20021;-76
2021/09/17 05:30:15;;;;;;;7.25;4.22;;;12.10;88.20;;;;;;5014526;28;20501;-76
2021/09/17 05:32:42;;;;;;;6.38;4.32;;;12.20;88.10;;;;;;5014940;28;20032;-76
2021/09/17 05:35:09;;;;;;;5.53;4.57;;;12.30;87.90;;;;;;5015033;28;20466;-76
2021/09/17 05:37:37;;;;;;;4.80;4.25;;;12.20;87.80;;;;;;5014989;28;20036;-77
2021/09/17 05:40:05;;;;;;;6.18;4.07;;;12.30;87.90;;;;;;5015301;28;20033;-75
2021/09/17 05:42:31;;;;;;;6.65;4.72;;;12.40;88.20;;;;;;5015272;28;20324;-75
2021/09/17 05:44:57;;;;;;;5.45;4.53;;;12.40;87.50;;;;;;5015131;28;20116;-75
2021/09/17 05:47:22;;;;;;;6.90;4.40;;;12.40;87.60;;;;;;5015161;28;20116;-74
2021/09/17 05:49:48;;;;;;;9.18;4.90;;;12.40;87.40;;;;;;5014887;28;20425;-75
2021/09/17 05:52:14;;;;;;;7.35;4.75;;;12.40;87.30;;;;;;5015375;28;20476;-75
2021/09/17 05:54:40;;;;;;;5.53;5.00;;;12.40;87.20;;;;;;5014902;28;20077;-75
2021/09/17 05:57:06;;;;;;;7.68;4.80;;;12.40;87.40;;;;;;5015045;28;20075;-74
2021/09/17 05:59:33;;;;;;;6.07;4.68;;;12.40;87.30;;;;;;5014789;28;20513;-75
2021/09/17 06:01:58;;;;;;;7.50;4.72;;;12.40;87.30;;;;;;5015057;28;20030;-75
2021/09/17 06:04:24;;;;;;;6.65;4.70;;;12.50;87.40;;;;;;5014984;28;20057;-77
2021/09/17 06:06:49;;;;;;;8.23;4.60;;;12.50;87.50;;;;;;5014751;28;20482;-77
2021/09/17 06:09:15;;;;;;;8.02;4.75;;;12.50;87.50;;;;;;5031800;28;20076;-76
2021/09/17 06:11:42;;;;;;;8.13;4.50;;;12.60;87.20;;;;;;5014394;28;20131;-77
2021/09/17 06:14:08;;;;;;;6.75;4.97;;;12.60;86.90;;;;;;5014676;28;20473;-75
2021/09/17 06:16:34;;;;;;;9.82;4.60;;;12.60;87.00;;;;;;4998587;28;20120;-75
2021/09/17 06:19:03;;;;;;;9.10;4.82;;;12.60;86.90;;;;;;5014646;28;20047;-75
2021/09/17 06:21:30;;;;;;;9.20;4.78;;;12.70;86.80;;;;;;5014884;28;20026;-75
2021/09/17 06:23:57;;;;;;;6.68;4.60;;;12.70;86.60;;;;;;5014822;28;20527;-75
2021/09/17 06:26:22;;;;;;;6.47;4.20;;;12.80;86.40;;;;;;5014741;28;20470;-75
2021/09/17 06:28:48;;;;;;;8.02;4.65;;;12.90;86.20;;;;;;5014555;28;20045;-75
2021/09/17 06:31:14;;;;;;;8.93;4.93;;;12.90;86.20;;;;;;5014870;28;20022;-76
2021/09/17 06:33:39;;;;;;;5.72;4.25;;;13.00;86.00;;;;;;5014719;28;20033;-75
2021/09/17 06:36:05;;;;;;;7.47;4.50;;;13.10;86.00;;;;;;5017194;28;20025;-75
2021/09/17 06:38:30;;;;;;;6.40;4.13;;;13.10;85.70;;;;;;5018668;28;20038;-74
2021/09/17 06:40:56;;;;;;;7.35;5.18;;;13.20;85.10;;;;;;5018846;28;20053;-75
2021/09/17 06:43:22;;;;;;;8.95;4.55;;;13.30;84.80;;;;;;5018601;28;20037;-76
2021/09/17 06:45:47;;;;;;;9.75;5.35;;;13.20;84.40;;;;;;5018803;28;20083;-75
2021/09/17 06:48:16;;;;;;;8.55;4.93;;;13.30;84.70;;;;;;5018777;28;20037;-75
2021/09/17 06:50:41;;;;;;;6.60;4.40;;;13.30;84.50;;;;;;5018363;28;20033;-77
2021/09/17 06:53:07;;;;;;;9.23;4.97;;;13.20;84.50;;;;;;5036156;28;20052;-74
2021/09/17 06:55:34;;;;;;;5.35;4.75;;;13.20;84.80;;;;;;5018633;28;20485;-78
2021/09/17 06:58:02;;;;;;;7.88;4.82;;;13.30;85.00;;;;;;5018179;28;20117;-76
2021/09/17 07:00:30;;;;;;;4.35;3.92;;;13.40;84.90;;;;;;5001930;28;20030;-76
2021/09/17 07:02:56;;;;;;;6.65;4.53;;;13.40;84.80;;;;;;5018643;28;20037;-76
2021/09/17 07:05:23;;;;;;;7.30;4.35;;;13.60;84.40;;;;;;5018327;28;20382;-75
2021/09/17 07:07:48;;;;;;;6.70;4.50;;;13.60;84.60;;;;;;5017914;28;20391;-75
2021/09/17 07:10:16;;;;;;;9.05;4.63;;;13.80;84.80;;;;;;5018376;28;20162;-78
2021/09/17 07:12:44;;;;;;;7.00;4.68;;;14.10;92.10;;;;;;5002188;28;20022;-78
2021/09/17 07:15:10;;;;;;;7.50;3.95;;;14.40;93.10;;;;;;5017862;28;20386;-79
2021/09/17 07:17:37;;;;;;;3.47;3.10;;;14.60;89.50;;;;;;5017772;28;20076;-79
2021/09/17 07:20:04;;;;;;;5.80;3.40;;;14.90;87.50;;;;;;5018127;28;20041;-78
2021/09/17 07:22:29;;;;;;;3.42;3.05;;;15.30;84.80;;;;;;5001212;28;20056;-79
2021/09/17 07:24:56;;;;;;;3.50;3.00;;;15.40;82.30;;;;;;5017996;28;20064;-79
2021/09/17 07:27:22;;;;;;;5.45;3.17;;;15.50;81.90;;;;;;5001988;28;20033;-79
2021/09/17 07:29:48;;;;;;;2.95;2.65;;;15.80;79.50;;;;;;5017809;28;20032;-78
2021/09/17 07:32:13;;;;;;;5.93;2.70;;;15.90;78.70;;;;;;5018232;28;20116;-77
2021/09/17 07:34:39;;;;;;;5.25;3.20;;;16.00;77.60;;;;;;5019745;28;20037;-78
2021/09/17 07:37:04;;;;;;;4.53;2.78;;;16.00;76.20;;;;;;5018972;28;20121;-78
2021/09/17 07:39:30;;;;;;;3.85;2.90;;;16.00;76.00;;;;;;5019518;28;20371;-78
2021/09/17 07:41:59;;;;;;;5.95;3.25;;;16.10;75.30;;;;;;5038857;28;20052;-79
2021/09/17 07:44:24;;;;;;;4.53;2.92;;;16.20;74.30;;;;;;5022232;28;20068;-79
2021/09/17 07:46:50;;;;;;;9.63;3.65;;;16.20;74.20;;;;;;5029856;28;20025;-79
2021/09/17 07:49:17;;;;;;;6.53;3.08;;;16.30;73.60;;;;;;5017537;28;20021;-79
2021/09/17 07:51:43;;;;;;;10.63;2.90;;;16.30;73.90;;;;;;5017698;28;20413;-79
2021/09/17 07:54:08;;;;;;;4.20;2.92;;;16.50;73.90;;;;;;5017122;28;20063;-78
2021/09/17 07:56:34;;;;;;;4.45;2.92;;;16.60;72.60;;;;;;5035386;28;20034;-78
2021/09/17 07:59:05;;;;;;;5.78;2.88;;;16.80;71.80;;;;;;5017183;28;20512;-78
2021/09/17 08:01:30;;;;;;;7.55;3.17;;;16.80;71.30;;;;;;5035199;28;20053;-79
2021/09/17 08:03:56;;;;;;;3.65;3.00;;;17.00;71.20;;;;;;5016998;28;20067;-79
2021/09/17 08:06:21;;;;;;;5.72;3.22;;;17.10;71.00;;;;;;5000918;28;20028;-78
2021/09/17 08:08:47;;;;;;;4.90;2.35;;;17.20;70.50;;;;;;5017248;28;20067;-78
2021/09/17 08:11:14;;;;;;;6.68;3.00;;;17.30;70.40;;;;;;5017054;28;20025;-79
2021/09/17 08:13:40;;;;;;;4.95;2.95;;;17.50;70.00;;;;;;5016873;28;20037;-78
2021/09/17 08:16:06;;;;;;;5.15;2.97;;;17.80;69.40;;;;;;5016947;28;20527;-78
2021/09/17 08:18:32;;;;;;;3.83;3.28;;;18.00;67.80;;;;;;5016866;28;20132;-78
2021/09/17 08:20:58;;;;;;;3.20;2.55;;;18.00;65.80;;;;;;5000683;28;20498;-78
2021/09/17 08:23:24;;;;;;;6.15;3.10;;;18.10;66.30;;;;;;5017104;28;20036;-78
2021/09/17 08:25:55;;;;;;;8.27;3.15;;;18.10;66.10;;;;;;5034725;28;20022;-78
2021/09/17 08:28:23;;;;;;;4.70;2.60;;;18.20;65.80;;;;;;5017064;28;20108;-78
2021/09/17 08:30:51;;;;;;;2.60;2.40;;;18.40;66.00;;;;;;5016998;28;20083;-78
2021/09/17 08:33:17;;;;;;;3.80;2.65;;;18.50;64.50;;;;;;5000719;28;20033;-78
2021/09/17 08:35:43;;;;;;;5.88;4.38;;;18.70;63.60;;;;;;5016416;28;20116;-78
2021/09/17 08:38:09;;;;;;;3.50;2.70;;;18.80;62.70;;;;;;5016471;28;20117;-78
2021/09/17 08:40:35;;;;;;;3.03;2.72;;;18.90;60.00;;;;;;5016852;28;20033;-78
2021/09/17 08:43:02;;;;;;;7.32;3.30;;;19.00;56.70;;;;;;5034227;28;20028;-78
2021/09/17 08:45:30;;;;;;;4.10;3.22;;;19.10;57.80;;;;;;5016779;28;20030;-78
2021/09/17 08:48:00;;;;;;;5.45;3.25;;;19.10;57.00;;;;;;5000231;28;20025;-78
2021/09/17 08:50:26;;;;;;;6.10;4.00;;;19.20;55.50;;;;;;5016290;28;20032;-78
2021/09/17 08:52:52;;;;;;;4.03;3.65;;;19.20;52.20;;;;;;4999615;28;20053;-78
2021/09/17 08:55:18;;;;;;;4.63;3.90;;;19.20;49.80;;;;;;5016404;28;20037;-78
2021/09/17 08:57:46;;;;;;;6.00;3.97;;;19.10;49.40;;;;;;5015700;28;20464;-78
2021/09/17 09:00:30;;;;;;;5.90;4.00;;;19.10;50.70;;;;;;5017177;28;20033;-78
2021/09/17 09:03:01;;;;;;;5.25;4.47;;;19.40;49.90;;;;;;5019963;28;20481;-79
2021/09/17 09:05:32;;;;;;;4.97;3.90;;;19.70;48.90;;;;;;5015992;28;20105;-75
2021/09/17 09:07:59;;;;;;;3.80;3.35;;;20.10;48.80;;;;;;5021880;28;20037;-75
2021/09/17 09:10:25;;;;;;;3.40;3.10;;;20.20;46.30;;;;;;5035581;28;20128;-75
2021/09/17 09:12:56;;;;;;;3.80;3.10;;;20.20;45.50;;;;;;5017668;28;20060;-75
2021/09/17 09:15:31;;;;;;;4.65;2.90;;;20.10;44.90;;;;;;5016383;28;20055;-76
2021/09/17 09:18:20;;;;;;;3.20;2.90;;;19.90;44.90;;;;;;5033569;28;20028;-76
2021/09/17 09:20:48;;;;;;;4.03;2.63;;;19.90;44.90;;;;;;5013433;28;20029;-76
2021/09/17 09:23:15;;;;;;;2.63;2.42;;;19.80;45.10;;;;;;5021800;28;20017;-75
2021/09/17 09:25:57;;;;;;;4.07;2.28;;;19.90;45.00;;;;;;5032773;28;20026;-75
2021/09/17 09:28:37;;;;;;;2.55;2.10;;;20.20;44.80;;;;;;5016071;28;20053;-75
2021/09/17 09:31:08;;;;;;;3.90;2.20;;;20.40;44.20;;;;;;5015824;28;20104;-76
2021/09/17 09:33:39;;;;;;;3.03;1.90;;;20.40;43.80;;;;;;5016436;28;20036;-75
2021/09/17 09:36:16;;;;;;;1.60;1.50;;;20.40;44.90;;;;;;5015723;28;20029;-75
2021/09/17 09:38:54;;;;;;;2.47;1.90;;;20.30;44.60;;;;;;5015492;28;20165;-75
2021/09/17 09:41:28;;;;;;;2.13;1.70;;;20.10;44.60;;;;;;5016300;28;20031;-75
2021/09/17 09:44:01;;;;;;;2.35;1.80;;;20.10;46.00;;;;;;5018965;28;20026;-76
2021/09/17 09:46:28;;;;;;;1.55;1.40;;;20.10;45.90;;;;;;5021230;28;20072;-74
2021/09/17 09:49:09;;;;;;;2.88;1.70;;;20.10;45.20;;;;;;5037769;28;20021;-76
2021/09/17 09:51:55;;;;;;;1.52;1.42;;;20.10;44.70;;;;;;5017141;28;20033;-75
2021/09/17 09:54:23;;;;;;;;;;;20.20;44.80;;;;;;5015339;28;20170;-75
2021/09/17 09:56:50;;;;;;;1.25;1.10;;;20.20;44.10;;;;;;5015109;28;19905;-76
2021/09/17 09:59:28;;;;;;;1.27;1.17;;;20.10;41.10;;;;;;5032579;28;20037;-76
2021/09/17 10:01:56;;;;;;;2.97;1.35;;;20.00;41.50;;;;;;5015194;28;20025;-76
2021/09/17 10:04:24;;;;;;;1.50;1.23;;;20.00;43.90;;;;;;5014878;28;20082;-75
2021/09/17 10:07:03;;;;;;;3.25;1.48;;;20.10;44.00;;;;;;5014110;28;20116;-75
2021/09/17 10:09:28;;;;;;;1.88;1.45;;;20.20;43.20;;;;;;5014062;28;20034;-77
2021/09/17 10:11:58;;;;;;;1.30;1.15;;;20.30;42.10;;;;;;5014612;28;20091;-76
2021/09/17 10:14:25;;;;;;;1.42;1.33;;;20.30;43.00;;;;;;5014792;28;20022;-75
2021/09/17 10:16:52;;;;;;;2.92;1.20;;;20.30;42.80;;;;;;5014399;28;20048;-75
2021/09/17 10:19:21;;;;;;;1.15;1.10;;;20.30;40.20;;;;;;5013932;28;20045;-76
2021/09/17 10:21:58;;;;;;;1.70;1.17;;;20.50;40.40;;;;;;5014643;28;20022;-76
2021/09/17 10:24:27;;;;;;;2.28;1.42;;;20.70;40.10;;;;;;5032497;28;20028;-74
2021/09/17 10:27:05;;;;;;;1.98;1.20;;;20.80;40.00;;;;;;5032288;28;20093;-75
2021/09/17 10:29:42;;;;;;;2.00;1.30;;;20.70;40.20;;;;;;5032479;28;20017;-75
2021/09/17 10:32:26;;;;;;;1.50;1.23;;;21.10;39.20;;;;;;5014658;28;20037;-74
2021/09/17 10:35:13;;;;;;;1.83;1.10;;;21.20;40.20;;;;;;5014787;28;20049;-75
2021/09/17 10:37:47;;;;;;;2.00;1.17;;;21.10;39.60;;;;;;5014566;28;20363;-77
2021/09/17 10:40:13;;;;;;;0.93;0.90;;;21.00;39.80;;;;;;5014757;28;20482;-75
2021/09/17 10:43:12;;;;;;;1.30;1.13;;;20.90;40.50;;;;;;5014321;28;20132;-75
2021/09/17 10:45:46;;;;;;;4.60;2.60;;;20.90;40.70;;;;;;5014346;28;20434;-75
2021/09/17 10:48:13;;;;;;;4.25;1.83;;;21.00;40.50;;;;;;5031944;28;20076;-76
2021/09/17 10:50:42;;;;;;;2.05;1.67;;;21.00;41.00;;;;;;5031471;28;20108;-74
2021/09/17 10:53:09;;;;;;;4.13;1.67;;;20.90;41.00;;;;;;5013937;28;20095;-80
2021/09/17 10:55:43;;;;;;;2.35;1.30;;;20.90;41.30;;;;;;5031753;28;20033;-77
2021/09/17 10:58:27;;;;;;;1.60;1.50;;;20.50;40.70;;;;;;5014217;28;20022;-76
2021/09/17 11:01:00;;;;;;;4.50;1.08;;;20.70;42.40;;;;;;5031966;28;20041;-74
2021/09/17 11:03:48;;;;;;;1.02;1.00;;;21.00;40.70;;;;;;5014204;28;20036;-75
2021/09/17 11:06:20;;;;;;;2.67;1.42;;;21.40;40.00;;;;;;5014425;28;20041;-76
2021/09/17 11:08:51;;;;;;;2.55;1.23;;;21.60;38.90;;;;;;5032303;28;20036;-73
2021/09/17 11:11:41;;;;;;;1.35;1.25;;;21.60;38.20;;;;;;5014355;28;20032;-74
2021/09/17 11:14:11;;;;;;;1.30;1.20;;;21.50;38.40;;;;;;5014660;28;20044;-74
2021/09/17 11:16:37;;;;;;;1.30;1.20;;;21.50;39.40;;;;;;5032116;28;20056;-74
2021/09/17 11:19:05;;;;;;;1.13;1.02;;;21.50;38.20;;;;;;5031776;28;20167;-76
2021/09/17 11:21:50;;;;;;;0.98;0.98;;;21.60;37.80;;;;;;5015894;28;20045;-73
2021/09/17 11:24:28;;;;;;;1.70;0.95;;;22.10;37.20;;;;;;5017690;28;20132;-75
2021/09/17 11:26:56;;;;;;;1.33;1.23;;;22.40;38.00;;;;;;5018033;28;20386;-74
2021/09/17 11:29:25;;;;;;;2.28;1.10;;;22.30;37.50;;;;;;5017776;28;20029;-72
2021/09/17 11:31:59;;;;;;;1.33;1.15;;;22.20;37.30;;;;;;4996961;28;20038;-84
2021/09/17 11:34:32;;;;;;;1.48;1.38;;;22.10;37.00;;;;;;5002189;28;20059;-84
2021/09/17 11:37:00;;;;;;;3.65;1.73;;;21.60;38.60;;;;;;5001715;28;20029;-78
2021/09/17 11:39:32;;;;;;;3.17;1.90;;;21.70;39.70;;;;;;5017171;28;20041;-78
2021/09/17 11:42:14;;;;;;;3.65;1.98;;;21.80;41.00;;;;;;5035388;28;20081;-79
2021/09/17 11:44:48;;;;;;;2.35;1.75;;;21.80;42.10;;;;;;5017946;28;20032;-77
2021/09/17 11:47:20;;;;;;;2.17;1.60;;;21.90;42.90;;;;;;5017158;28;20385;-76
2021/09/17 11:49:46;;;;;;;2.13;1.58;;;21.90;43.20;;;;;;5017494;28;20022;-78
2021/09/17 11:52:18;;;;;;;1.27;1.17;;;21.90;41.40;;;;;;5017085;28;20028;-77
2021/09/17 11:55:05;;;;;;;1.40;1.30;;;21.80;41.00;;;;;;5017056;28;20050;-77
2021/09/17 11:57:41;;;;;;;1.75;1.48;;;22.40;41.50;;;;;;5030664;28;20068;-76
2021/09/17 12:00:07;;;;;;;1.25;1.15;;;23.00;40.60;;;;;;5017499;28;20060;-77
2021/09/17 12:02:33;;;;;;;1.38;1.15;;;23.70;38.80;;;;;;5017314;28;20424;-78
2021/09/17 12:05:01;;;;;;;1.48;1.38;;;24.30;36.50;;;;;;5017440;28;20064;-78
2021/09/17 12:07:29;;;;;;;1.65;1.30;;;24.40;34.10;;;;;;5017427;28;20118;-78
2021/09/17 12:09:56;;;;;;;1.30;1.20;;;23.80;35.10;;;;;;5017304;28;20037;-78
2021/09/17 12:12:32;;;;;;;1.70;1.42;;;23.60;35.10;;;;;;5017037;28;20021;-79
2021/09/17 12:14:58;;;;;;;2.88;1.00;;;22.70;36.10;;;;;;5016896;28;20021;-80
2021/09/17 12:17:25;;;;;;;1.23;1.13;;;23.00;37.40;;;;;;5000829;28;20037;-79
2021/09/17 12:19:57;;;;;;;2.58;1.45;;;23.50;36.70;;;;;;5014660;28;20398;-81
2021/09/17 12:22:45;;;;;;;3.08;1.83;;;23.50;36.00;;;;;;5015761;28;20107;-79
2021/09/17 12:25:17;;;;;;;2.03;1.50;;;23.40;37.00;;;;;;5014850;28;20024;-80
2021/09/17 12:27:48;;;;;;;3.30;1.60;;;23.90;38.80;;;;;;5016257;28;20031;-78
2021/09/17 12:30:19;;;;;;;2.70;1.63;;;23.70;37.50;;;;;;5016509;28;20075;-79
2021/09/17 12:33:04;;;;;;;2.85;1.73;;;23.80;37.90;;;;;;5015649;28;20026;-78
2021/09/17 12:35:30;;;;;;;2.03;1.75;;;24.10;36.80;;;;;;5016431;28;20371;-80
2021/09/17 12:37:58;;;;;;;1.50;0.98;;;24.30;36.40;;;;;;5032526;28;20497;-83
2021/09/17 12:40:31;;;;;;;4.00;1.48;;;24.80;36.30;;;;;;5016627;28;20034;-84
2021/09/17 12:43:00;;;;;;;1.90;1.20;;;25.40;34.50;;;;;;5016542;28;20017;-79
2021/09/17 12:45:26;;;;;;;1.67;1.27;;;26.00;34.80;;;;;;5016370;28;20057;-78
2021/09/17 12:47:55;;;;;;;3.97;1.17;;;26.50;33.10;;;;;;5033998;28;20057;-81
2021/09/17 12:50:30;;;;;;;3.65;2.45;;;26.90;31.30;;;;;;5033929;28;20052;-80
2021/09/17 12:52:56;;;;;;;1.30;1.20;;;26.90;30.60;;;;;;5038572;28;20045;-77